createdAt,value
2023-04-28T00:00:30.367Z,11.87
2023-04-28T00:03:04.504Z,11.85
2023-04-28T00:05:34.264Z,11.84
2023-04-28T00:08:03.750Z,11.85
2023-04-28T00:10:34.302Z,11.78
2023-04-28T00:13:03.935Z,11.68
2023-04-28T00:15:33.548Z,11.72
2023-04-28T00:18:05.625Z,11.64
2023-04-28T00:20:35.021Z,11.71
2023-04-28T00:23:04.381Z,11.69
2023-04-28T00:25:33.886Z,11.65
2023-04-28T00:28:03.238Z,11.74
2023-04-28T00:30:33.261Z,11.65
2023-04-28T00:33:05.225Z,11.69
2023-04-28T00:35:34.751Z,11.67
2023-04-28T00:38:04.079Z,11.62
2023-04-28T00:40:36.973Z,11.65
2023-04-28T00:43:07.161Z,11.56
2023-04-28T00:45:36.862Z,11.58
2023-04-28T00:48:08.983Z,11.55
2023-04-28T00:50:39.333Z,11.56
2023-04-28T00:53:09.045Z,11.55
2023-04-28T00:55:38.548Z,11.53
2023-04-28T00:58:08.037Z,11.51
2023-04-28T01:00:37.875Z,11.51
2023-04-28T01:03:10.082Z,11.48
2023-04-28T01:05:39.952Z,11.47
2023-04-28T01:08:09.310Z,11.43
2023-04-28T01:10:38.720Z,11.31
2023-04-28T01:13:08.036Z,11.31
2023-04-28T01:15:37.623Z,11.28
2023-04-28T01:18:07.642Z,10.96
2023-04-28T01:20:39.723Z,10.96
2023-04-28T01:23:14.054Z,11.05
2023-04-28T01:25:46.828Z,10.94
2023-04-28T01:28:16.268Z,11.02
2023-04-28T01:30:45.607Z,11.09
2023-04-28T01:33:14.972Z,11.05
2023-04-28T01:35:44.543Z,11.09
2023-04-28T01:38:14.249Z,11.10
2023-04-28T01:40:46.519Z,11.03
2023-04-28T01:43:15.951Z,11.04
2023-04-28T01:45:45.563Z,11.05
2023-04-28T01:48:15.077Z,11.01
2023-04-28T01:50:44.687Z,11.03
2023-04-28T01:53:23.386Z,10.98
2023-04-28T01:55:56.645Z,10.94
2023-04-28T01:58:26.195Z,10.78
2023-04-28T02:00:55.893Z,10.83
2023-04-28T02:03:25.956Z,10.84
2023-04-28T02:05:55.579Z,10.67
2023-04-28T02:08:25.219Z,10.58
2023-04-28T02:10:57.476Z,10.64
2023-04-28T02:13:27.161Z,10.57
2023-04-28T02:15:56.908Z,10.57
2023-04-28T02:18:26.408Z,10.48
2023-04-28T02:20:55.943Z,10.40
2023-04-28T02:23:25.599Z,10.42
2023-04-28T02:26:06.434Z,10.46
2023-04-28T02:28:35.960Z,10.48
2023-04-28T02:31:09.832Z,10.57
2023-04-28T02:33:39.950Z,10.34
2023-04-28T02:36:11.657Z,10.28
2023-04-28T02:38:41.705Z,10.27
2023-04-28T02:41:15.254Z,10.15
2023-04-28T02:43:44.909Z,10.16
2023-04-28T02:46:14.466Z,10.13
2023-04-28T02:48:44.077Z,10.07
2023-04-28T02:51:14.401Z,10.08
2023-04-28T02:53:44.088Z,10.01
2023-04-28T02:56:16.657Z,10.04
2023-04-28T02:58:46.566Z,10.14
2023-04-28T03:01:16.875Z,10.16
2023-04-28T03:03:46.475Z,10.12
2023-04-28T03:06:16.163Z,10.11
2023-04-28T03:08:45.618Z,10.18
2023-04-28T03:11:17.708Z,10.16
2023-04-28T03:13:47.175Z,10.14
2023-04-28T03:16:16.770Z,10.05
2023-04-28T03:18:46.400Z,9.94
2023-04-28T03:21:15.813Z,9.85
2023-04-28T03:23:45.396Z,9.89
2023-04-28T03:26:17.385Z,9.75
2023-04-28T03:28:46.975Z,9.65
2023-04-28T03:31:16.742Z,9.35
2023-04-28T03:33:47.341Z,9.60
2023-04-28T03:36:16.870Z,9.63
2023-04-28T03:38:46.767Z,9.44
2023-04-28T03:41:18.926Z,9.68
2023-04-28T03:43:48.498Z,9.63
2023-04-28T03:46:17.956Z,9.67
2023-04-28T03:48:47.598Z,9.66
2023-04-28T03:51:17.022Z,9.62
2023-04-28T03:53:46.667Z,9.52
2023-04-28T03:56:18.878Z,9.59
2023-04-28T03:58:48.625Z,9.45
2023-04-28T04:01:20.289Z,9.47
2023-04-28T04:03:50.147Z,9.56
2023-04-28T04:06:20.185Z,9.47
2023-04-28T04:08:49.780Z,9.47
2023-04-28T04:11:21.883Z,9.36
2023-04-28T04:13:51.424Z,9.35
2023-04-28T04:16:22.081Z,9.36
2023-04-28T04:18:51.675Z,9.21
2023-04-28T04:21:21.219Z,9.09
2023-04-28T04:23:50.672Z,9.06
2023-04-28T04:26:22.706Z,9.21
2023-04-28T04:28:52.153Z,9.29
2023-04-28T04:31:22.930Z,9.34
2023-04-28T04:33:52.472Z,9.39
2023-04-28T04:36:21.908Z,9.41
2023-04-28T04:38:53.261Z,9.21
2023-04-28T04:41:26.529Z,9.28
2023-04-28T04:43:55.920Z,9.34
2023-04-28T04:46:25.804Z,9.38
2023-04-28T04:48:55.149Z,9.39
2023-04-28T04:51:24.628Z,9.28
2023-04-28T04:53:53.937Z,9.25
2023-04-28T04:56:27.807Z,9.23
2023-04-28T04:58:57.578Z,9.23
2023-04-28T05:01:27.042Z,9.27
2023-04-28T05:03:57.037Z,9.42
2023-04-28T05:06:26.777Z,9.42
2023-04-28T05:08:56.736Z,9.26
2023-04-28T05:11:28.897Z,9.21
2023-04-28T05:13:58.403Z,9.21
2023-04-28T05:16:28.237Z,9.22
2023-04-28T05:18:59.679Z,9.27
2023-04-28T05:21:35.274Z,9.23
2023-04-28T05:24:07.768Z,9.11
2023-04-28T05:27:33.460Z,9.19
2023-04-28T05:30:05.896Z,9.15
2023-04-28T05:32:36.802Z,9.14
2023-04-28T05:35:06.523Z,9.09
2023-04-28T05:37:38.284Z,9.05
2023-04-28T05:40:09.338Z,8.95
2023-04-28T05:42:38.757Z,9.07
2023-04-28T05:45:12.863Z,9.04
2023-04-28T05:47:42.293Z,8.89
2023-04-28T05:50:12.870Z,9.07
2023-04-28T05:52:42.307Z,9.14
2023-04-28T05:55:12.815Z,8.94
2023-04-28T05:57:52.461Z,9.06
2023-04-28T06:00:26.010Z,9.18
2023-04-28T06:02:55.453Z,9.12
2023-04-28T06:05:25.946Z,9.04
2023-04-28T06:07:56.285Z,9.04
2023-04-28T06:10:26.156Z,9.24
2023-04-28T06:12:55.534Z,9.28
2023-04-28T06:15:27.704Z,9.37
2023-04-28T06:17:57.137Z,9.35
2023-04-28T06:20:26.575Z,9.42
2023-04-28T06:22:55.930Z,9.52
2023-04-28T06:25:25.308Z,9.42
2023-04-28T06:27:54.657Z,9.56
2023-04-28T06:30:28.112Z,9.47
2023-04-28T06:33:00.170Z,9.53
2023-04-28T06:35:29.685Z,9.55
2023-04-28T06:37:59.024Z,9.60
2023-04-28T06:40:28.330Z,9.69
2023-04-28T06:42:57.872Z,9.70
2023-04-28T06:45:29.824Z,9.76
2023-04-28T06:47:59.283Z,9.83
2023-04-28T06:50:28.699Z,9.97
2023-04-28T06:52:58.878Z,9.96
2023-04-28T06:55:29.609Z,10.00
2023-04-28T06:57:58.986Z,9.99
2023-04-28T07:00:30.936Z,10.03
2023-04-28T07:03:00.537Z,10.04
2023-04-28T07:05:30.388Z,10.12
2023-04-28T07:07:59.738Z,10.27
2023-04-28T07:10:29.081Z,10.34
2023-04-28T07:12:59.270Z,10.49
2023-04-28T07:15:31.748Z,10.45
2023-04-28T07:18:01.414Z,10.52
2023-04-28T07:20:30.794Z,10.61
2023-04-28T07:23:00.189Z,10.72
2023-04-28T07:25:29.625Z,10.81
2023-04-28T07:27:59.030Z,10.93
2023-04-28T07:30:31.065Z,10.89
2023-04-28T07:33:00.647Z,11.03
2023-04-28T07:35:30.390Z,11.07
2023-04-28T07:38:00.417Z,11.16
2023-04-28T07:40:29.835Z,11.20
2023-04-28T07:42:59.215Z,11.29
2023-04-28T07:45:31.352Z,11.36
2023-04-28T07:48:01.380Z,11.32
2023-04-28T07:50:30.793Z,11.40
2023-04-28T07:53:00.947Z,11.42
2023-04-28T07:55:30.298Z,11.54
2023-04-28T07:57:59.674Z,11.60
2023-04-28T08:00:31.754Z,11.67
2023-04-28T08:03:01.270Z,11.72
2023-04-28T08:05:30.765Z,11.79
2023-04-28T08:08:00.319Z,11.90
2023-04-28T08:10:29.868Z,11.89
2023-04-28T08:12:59.284Z,11.92
2023-04-28T08:15:31.294Z,11.95
2023-04-28T08:18:00.701Z,11.94
2023-04-28T08:20:30.385Z,12.09
2023-04-28T08:22:59.755Z,12.13
2023-04-28T08:25:29.263Z,12.18
2023-04-28T08:27:59.681Z,12.29
2023-04-28T08:30:31.858Z,12.33
2023-04-28T08:33:01.241Z,12.27
2023-04-28T08:35:30.680Z,12.26
2023-04-28T08:38:00.140Z,12.42
2023-04-28T08:40:31.553Z,12.48
2023-04-28T08:43:00.911Z,12.51
2023-04-28T08:45:33.637Z,12.47
2023-04-28T08:48:06.447Z,12.49
2023-04-28T08:50:38.198Z,12.55
2023-04-28T08:53:07.846Z,12.57
2023-04-28T08:55:38.929Z,12.62
2023-04-28T08:58:08.885Z,12.57
2023-04-28T09:00:42.281Z,12.61
2023-04-28T09:03:16.653Z,12.63
2023-04-28T09:05:46.419Z,12.65
2023-04-28T09:08:16.140Z,12.63
2023-04-28T09:10:45.578Z,12.71
2023-04-28T09:13:27.932Z,12.74
2023-04-28T09:16:05.453Z,12.86
2023-04-28T09:18:35.417Z,12.90
2023-04-28T09:21:09.243Z,12.91
2023-04-28T09:23:51.040Z,13.00
2023-04-28T09:26:20.355Z,13.09
2023-04-28T09:28:49.774Z,13.03
2023-04-28T09:31:29.299Z,12.97
2023-04-28T09:34:02.726Z,13.04
2023-04-28T09:36:32.995Z,13.14
2023-04-28T09:39:03.438Z,13.16
2023-04-28T09:41:41.038Z,13.14
2023-04-28T09:44:19.481Z,13.14
2023-04-28T09:46:51.813Z,13.13
2023-04-28T09:49:21.191Z,13.11
2023-04-28T09:51:50.528Z,13.17
2023-04-28T09:54:21.236Z,13.24
2023-04-28T09:56:51.148Z,13.28
2023-04-28T09:59:21.679Z,13.26
2023-04-28T10:01:54.099Z,13.36
2023-04-28T10:04:25.351Z,13.43
2023-04-28T10:06:54.926Z,13.52
2023-04-28T10:09:26.870Z,13.54
2023-04-28T10:11:56.203Z,13.55
2023-04-28T10:14:27.069Z,13.61
2023-04-28T10:17:06.705Z,13.67
2023-04-28T10:19:37.534Z,13.64
2023-04-28T10:22:26.412Z,13.75
2023-04-28T10:25:15.688Z,13.78
2023-04-28T10:27:46.795Z,13.86
2023-04-28T10:33:29.073Z,13.96
2023-04-28T10:35:59.010Z,14.03
2023-04-28T10:38:28.356Z,14.04
2023-04-28T10:41:04.212Z,14.07
2023-04-28T10:43:39.519Z,14.05
2023-04-28T10:46:13.262Z,14.11
2023-04-28T10:49:12.162Z,14.13
2023-04-28T10:51:41.575Z,14.18
2023-04-28T10:54:21.411Z,14.16
2023-04-28T10:57:21.575Z,14.17
2023-04-28T10:59:54.388Z,14.15
2023-04-28T11:02:43.622Z,14.16
2023-04-28T11:05:21.948Z,14.23
2023-04-28T11:08:33.455Z,14.30
2023-04-28T11:11:18.488Z,14.39
2023-04-28T11:13:49.735Z,14.36
2023-04-28T11:16:21.210Z,14.47
2023-04-28T11:18:56.116Z,14.35
2023-04-28T11:21:29.506Z,14.41
2023-04-28T11:24:00.342Z,14.47
2023-04-28T11:26:32.267Z,14.55
2023-04-28T11:29:03.303Z,14.52
2023-04-28T11:31:32.669Z,14.63
2023-04-28T11:34:08.533Z,14.60
2023-04-28T11:36:41.717Z,14.61
2023-04-28T11:39:13.090Z,14.74
2023-04-28T11:41:44.267Z,14.83
2023-04-28T11:44:15.422Z,14.87
2023-04-28T11:46:51.103Z,15.13
2023-04-28T11:49:21.871Z,15.15
2023-04-28T11:51:54.974Z,15.14
2023-04-28T11:54:25.833Z,15.06
2023-04-28T11:56:57.650Z,15.12
2023-04-28T11:59:28.427Z,15.11
2023-04-28T12:01:59.885Z,15.16
2023-04-28T12:04:32.047Z,15.18
2023-04-28T12:07:06.529Z,15.21
2023-04-28T12:09:37.360Z,15.23
2023-04-28T12:12:08.323Z,15.21
2023-04-28T12:14:59.694Z,15.22
2023-04-28T12:17:30.443Z,15.22
2023-04-28T12:20:02.005Z,15.23
2023-04-28T12:22:34.214Z,15.26
2023-04-28T12:25:08.163Z,15.39
2023-04-28T12:27:39.312Z,15.34
2023-04-28T12:30:30.838Z,15.41
2023-04-28T12:33:00.479Z,15.34
2023-04-28T12:35:31.725Z,15.38
2023-04-28T12:38:04.232Z,15.41
2023-04-28T12:40:33.583Z,15.27
2023-04-28T12:43:02.915Z,15.42
2023-04-28T12:45:33.094Z,15.37
2023-04-28T12:48:02.482Z,15.36
2023-04-28T12:50:33.234Z,15.29
2023-04-28T12:53:05.187Z,15.30
2023-04-28T12:55:34.750Z,15.34
2023-04-28T12:58:04.084Z,15.32
2023-04-28T13:00:33.477Z,15.31
2023-04-28T13:03:03.566Z,15.31
2023-04-28T13:05:35.180Z,15.35
2023-04-28T13:08:07.936Z,15.34
2023-04-28T13:10:37.302Z,15.32
2023-04-28T13:13:06.766Z,15.39
2023-04-28T13:15:38.792Z,15.47
2023-04-28T13:18:08.408Z,15.58
2023-04-28T13:20:37.883Z,15.55
2023-04-28T13:23:09.782Z,15.57
2023-04-28T13:25:39.143Z,15.46
2023-04-28T13:28:08.606Z,15.48
2023-04-28T13:30:37.962Z,15.52
2023-04-28T13:33:07.583Z,15.47
2023-04-28T13:35:37.007Z,15.37
2023-04-28T13:38:09.584Z,15.38
2023-04-28T13:40:39.619Z,15.38
2023-04-28T13:43:08.996Z,15.42
2023-04-28T13:45:38.441Z,15.41
2023-04-28T13:48:08.622Z,15.40
2023-04-28T13:50:39.547Z,15.44
2023-04-28T13:53:12.058Z,15.38
2023-04-28T13:55:41.530Z,15.36
2023-04-28T13:58:10.971Z,15.36
2023-04-28T14:00:40.779Z,15.28
2023-04-28T14:03:11.684Z,15.33
2023-04-28T14:05:48.722Z,15.31
2023-04-28T14:08:22.110Z,15.38
2023-04-28T14:10:51.864Z,15.32
2023-04-28T14:13:21.668Z,15.34
2023-04-28T14:15:57.859Z,15.43
2023-04-28T14:18:28.390Z,15.45
2023-04-28T14:20:57.970Z,15.42
2023-04-28T14:23:29.992Z,15.47
2023-04-28T14:25:59.525Z,15.50
2023-04-28T14:28:28.998Z,15.58
2023-04-28T14:30:58.421Z,15.56
2023-04-28T14:33:27.818Z,15.57
2023-04-28T14:35:57.202Z,15.54
2023-04-28T14:38:26.681Z,15.57
2023-04-28T14:40:58.625Z,15.56
2023-04-28T14:43:28.243Z,15.57
2023-04-28T14:45:57.669Z,15.50
2023-04-28T14:48:27.303Z,15.52
2023-04-28T14:50:56.805Z,15.40
2023-04-28T14:53:26.212Z,15.46
2023-04-28T14:56:07.582Z,15.49
2023-04-28T14:58:46.947Z,15.46
2023-04-28T15:01:16.763Z,15.47
2023-04-28T15:03:46.319Z,15.42
2023-04-28T15:06:16.657Z,15.47
2023-04-28T15:08:46.037Z,15.53
2023-04-28T15:11:18.116Z,15.57
2023-04-28T15:13:47.514Z,15.54
2023-04-28T15:16:17.057Z,15.55
2023-04-28T15:18:46.970Z,15.56
2023-04-28T15:21:16.323Z,15.55
2023-04-28T15:23:45.780Z,15.47
2023-04-28T15:26:17.728Z,15.47
2023-04-28T15:28:47.032Z,15.45
2023-04-28T15:31:16.438Z,15.59
2023-04-28T15:33:45.823Z,15.61
2023-04-28T15:36:15.349Z,15.55
2023-04-28T15:38:45.512Z,15.65
2023-04-28T15:41:15.092Z,15.69
2023-04-28T15:43:47.585Z,15.69
2023-04-28T15:46:17.865Z,15.68
2023-04-28T15:48:47.333Z,15.71
2023-04-28T15:51:17.086Z,15.71
2023-04-28T15:53:46.468Z,15.67
2023-04-28T15:56:17.446Z,15.60
2023-04-28T15:58:50.946Z,15.44
2023-04-28T16:01:23.729Z,15.41
2023-04-28T16:03:53.274Z,15.28
2023-04-28T16:06:22.759Z,15.29
2023-04-28T16:08:52.126Z,15.27
2023-04-28T16:11:21.701Z,15.28
2023-04-28T16:13:53.758Z,15.35
2023-04-28T16:16:25.776Z,15.30
2023-04-28T16:18:55.971Z,15.32
2023-04-28T16:21:25.284Z,15.27
2023-04-28T16:23:55.089Z,15.31
2023-04-28T16:26:24.406Z,15.37
2023-04-28T16:28:56.402Z,15.37
2023-04-28T16:31:25.987Z,15.37
2023-04-28T16:33:55.363Z,15.48
2023-04-28T16:36:24.735Z,15.46
2023-04-28T16:38:54.073Z,15.41
2023-04-28T16:41:23.436Z,15.35
2023-04-28T16:43:52.876Z,15.58
2023-04-28T16:46:24.924Z,15.37
2023-04-28T16:48:54.332Z,15.50
2023-04-28T16:51:23.710Z,15.64
2023-04-28T16:53:53.115Z,15.47
2023-04-28T16:56:22.459Z,15.55
2023-04-28T16:58:51.929Z,15.51
2023-04-28T17:01:24.335Z,15.43
2023-04-28T17:03:54.020Z,15.48
2023-04-28T17:06:23.457Z,15.44
2023-04-28T17:08:52.858Z,15.37
2023-04-28T17:11:22.208Z,15.34
2023-04-28T17:13:51.566Z,15.40
2023-04-28T17:16:20.953Z,15.41
2023-04-28T17:18:53.046Z,15.44
2023-04-28T17:21:22.394Z,15.35
2023-04-28T17:23:51.749Z,15.43
2023-04-28T17:26:21.076Z,15.29
2023-04-28T17:28:50.697Z,15.21
2023-04-28T17:31:20.098Z,15.12
2023-04-28T17:33:49.513Z,15.09
2023-04-28T17:36:23.359Z,15.16
2023-04-28T17:38:53.306Z,15.13
2023-04-28T17:41:23.272Z,15.08
2023-04-28T17:43:53.646Z,15.22
2023-04-28T17:46:23.766Z,15.08
2023-04-28T17:48:53.185Z,15.07
2023-04-28T17:51:25.305Z,15.23
2023-04-28T17:53:56.841Z,15.23
2023-04-28T17:56:26.474Z,15.23
2023-04-28T17:58:56.287Z,15.07
2023-04-28T18:01:25.763Z,15.13
2023-04-28T18:03:55.910Z,15.18
2023-04-28T18:06:28.637Z,15.03
2023-04-28T18:08:57.951Z,14.94
2023-04-28T18:11:28.107Z,14.85
2023-04-28T18:13:58.824Z,14.71
2023-04-28T18:16:28.496Z,14.73
2023-04-28T18:18:58.340Z,14.68
2023-04-28T18:21:30.586Z,14.74
2023-04-28T18:23:59.922Z,14.61
2023-04-28T18:26:29.237Z,14.66
2023-04-28T18:28:58.588Z,14.75
2023-04-28T18:31:28.040Z,14.89
2023-04-28T18:33:57.366Z,14.98
2023-04-28T18:36:26.728Z,15.16
2023-04-28T18:38:59.245Z,15.10
2023-04-28T18:41:28.584Z,15.19
2023-04-28T18:43:58.556Z,15.17
2023-04-28T18:46:29.507Z,15.13
2023-04-28T18:48:59.235Z,14.93
2023-04-28T18:51:28.674Z,14.99
2023-04-28T18:54:00.611Z,14.91
2023-04-28T18:56:29.972Z,15.00
2023-04-28T18:58:59.308Z,14.87
2023-04-28T19:01:28.694Z,14.93
2023-04-28T19:03:58.594Z,14.84
2023-04-28T19:06:28.162Z,14.88
2023-04-28T19:09:00.426Z,14.89
2023-04-28T19:11:30.585Z,14.94
2023-04-28T19:14:00.517Z,14.83
2023-04-28T19:16:29.964Z,14.78
2023-04-28T19:18:59.337Z,14.91
2023-04-28T19:21:29.874Z,14.85
2023-04-28T19:24:03.057Z,14.98
2023-04-28T19:26:32.816Z,14.96
2023-04-28T19:29:02.257Z,14.98
2023-04-28T19:31:31.736Z,14.95
2023-04-28T19:34:01.124Z,14.98
2023-04-28T19:36:30.863Z,14.95
2023-04-28T19:39:03.789Z,15.01
2023-04-28T19:41:33.228Z,15.15
2023-04-28T19:44:03.378Z,15.22
2023-04-28T19:46:32.745Z,15.18
2023-04-28T19:49:02.176Z,15.40
2023-04-28T19:51:31.592Z,15.36
2023-04-28T19:54:03.591Z,15.29
2023-04-28T19:56:33.364Z,15.30
2023-04-28T19:59:03.218Z,15.28
2023-04-28T20:01:32.672Z,15.34
2023-04-28T20:04:02.176Z,15.32
2023-04-28T20:06:31.929Z,15.31
2023-04-28T20:09:05.689Z,15.37
2023-04-28T20:11:35.435Z,15.45
2023-04-28T20:14:04.752Z,15.38
2023-04-28T20:16:34.123Z,15.14
2023-04-28T20:19:03.444Z,15.00
2023-04-28T20:21:32.943Z,14.89
2023-04-28T20:24:05.304Z,14.78
2023-04-28T20:26:34.629Z,14.78
2023-04-28T20:29:03.965Z,14.77
2023-04-28T20:31:33.422Z,14.64
2023-04-28T20:34:03.177Z,14.72
2023-04-28T20:36:33.806Z,14.70
2023-04-28T20:39:11.585Z,14.65
2023-04-28T20:41:41.375Z,14.77
2023-04-28T20:44:11.991Z,14.85
2023-04-28T21:22:46.902Z,14.70
2023-04-28T21:39:03.616Z,13.88
2023-04-28T21:42:42.676Z,14.00
2023-04-28T21:52:17.284Z,13.53
2023-04-28T21:55:36.481Z,13.52
2023-04-28T21:58:06.695Z,13.55
2023-04-28T22:00:41.673Z,13.74
2023-04-28T22:03:11.287Z,13.81
2023-04-28T22:05:43.823Z,13.70
2023-04-28T22:08:13.966Z,13.76
2023-04-28T22:10:44.214Z,13.64
2023-04-28T22:13:14.465Z,13.74
2023-04-28T22:15:44.485Z,13.76
2023-04-28T22:18:15.013Z,13.27
2023-04-28T22:20:47.804Z,13.52
2023-04-28T22:23:17.354Z,13.64
2023-04-28T22:25:46.801Z,13.42
2023-04-28T22:28:16.656Z,13.53
2023-04-28T22:30:48.234Z,13.35
2023-04-28T22:33:17.825Z,13.21
2023-04-28T22:35:50.034Z,13.38
2023-04-28T22:38:19.660Z,13.39
2023-04-28T22:40:49.206Z,13.18
2023-04-28T22:43:18.804Z,13.25
2023-04-28T22:45:48.522Z,13.06
2023-04-28T22:48:18.116Z,13.33
2023-04-28T22:50:51.541Z,13.19
2023-04-28T22:53:21.693Z,13.18
2023-04-28T22:55:51.413Z,13.17
2023-04-28T22:58:20.887Z,13.47
2023-04-28T23:00:50.369Z,13.33
2023-04-28T23:03:21.571Z,13.13
2023-04-28T23:05:53.702Z,12.99
2023-04-28T23:08:23.186Z,13.28
2023-04-28T23:10:52.518Z,13.32
2023-04-28T23:13:21.855Z,13.28
2023-04-28T23:15:51.232Z,13.28
2023-04-28T23:18:20.919Z,13.58
2023-04-28T23:20:52.823Z,13.19
2023-04-28T23:23:22.225Z,13.24
2023-04-28T23:25:52.158Z,12.98
2023-04-28T23:28:21.828Z,13.16
2023-04-28T23:30:51.185Z,12.89
2023-04-28T23:33:20.601Z,12.78
2023-04-28T23:35:50.003Z,13.02
2023-04-28T23:38:21.929Z,12.97
2023-04-28T23:40:51.329Z,12.88
2023-04-28T23:43:20.907Z,13.20
2023-04-28T23:45:50.302Z,13.06
2023-04-28T23:48:19.664Z,13.18
2023-04-28T23:50:49.245Z,13.06
2023-04-28T23:53:18.567Z,12.86
2023-04-28T23:55:51.020Z,12.97
2023-04-28T23:58:20.586Z,12.70
